createdAt,value
2022-10-07T00:04:32.435Z,100558.50
2022-10-07T00:10:42.285Z,100550.06
2022-10-07T00:16:44.213Z,100549.53
2022-10-07T00:22:46.115Z,100557.91
2022-10-07T00:28:48.503Z,100540.25
2022-10-07T00:34:50.544Z,100524.53
2022-10-07T00:40:52.700Z,100520.06
2022-10-07T00:46:55.682Z,100519.16
2022-10-07T00:53:01.993Z,100500.13
2022-10-07T00:59:15.557Z,100508.25
2022-10-07T01:05:17.766Z,100496.50
2022-10-07T01:11:56.625Z,100490.38
2022-10-07T01:18:24.937Z,100480.28
2022-10-07T01:25:32.169Z,100469.50
2022-10-07T01:31:58.112Z,100468.97
2022-10-07T01:38:08.369Z,100463.50
2022-10-07T01:44:13.459Z,100455.66
2022-10-07T01:57:28.454Z,100449.09
2022-10-07T02:04:28.030Z,100438.16
2022-10-07T02:10:43.550Z,100429.19
2022-10-07T02:16:54.523Z,100426.41
2022-10-07T02:23:05.252Z,100416.88
2022-10-07T02:29:10.713Z,100407.31
2022-10-07T02:35:27.915Z,100399.91
2022-10-07T02:41:51.372Z,100403.97
2022-10-07T02:48:04.140Z,100404.94
2022-10-07T02:54:13.578Z,100395.56
2022-10-07T03:00:17.625Z,100397.69
2022-10-07T03:06:19.692Z,100388.56
2022-10-07T03:12:22.125Z,100379.31
2022-10-07T03:18:28.504Z,100380.03
2022-10-07T03:24:31.152Z,100376.38
2022-10-07T03:30:33.259Z,100382.56
2022-10-07T03:43:02.440Z,100364.22
2022-10-07T03:56:17.032Z,100359.25
2022-10-07T04:02:20.602Z,100348.19
2022-10-07T04:08:22.501Z,100349.84
2022-10-07T04:14:24.365Z,100353.13
2022-10-07T04:20:26.429Z,100338.72
2022-10-07T04:26:28.401Z,100337.84
2022-10-07T04:32:31.568Z,100333.78
2022-10-07T04:38:33.594Z,100332.09
2022-10-07T04:44:35.638Z,100326.78
2022-10-07T04:50:40.597Z,100317.09
2022-10-07T04:56:43.580Z,100325.31
2022-10-07T05:02:50.299Z,100320.38
2022-10-07T05:08:54.258Z,100311.94
2022-10-07T05:14:56.201Z,100308.25
2022-10-07T05:20:58.163Z,100305.03
2022-10-07T05:27:00.040Z,100301.31
2022-10-07T05:33:02.813Z,100314.66
2022-10-07T05:39:05.427Z,100307.94
2022-10-07T05:45:08.231Z,100295.63
2022-10-07T05:51:10.253Z,100293.28
2022-10-07T05:57:12.147Z,100291.47
2022-10-07T06:03:14.135Z,100296.78
2022-10-07T06:09:34.559Z,100291.03
2022-10-07T06:15:37.158Z,100276.19
2022-10-07T06:21:39.065Z,100279.94
2022-10-07T06:27:40.962Z,100276.72
2022-10-07T06:33:43.482Z,100271.41
2022-10-07T06:39:45.385Z,100285.94
2022-10-07T06:45:58.440Z,100287.78
2022-10-07T06:52:00.386Z,100300.22
2022-10-07T06:58:06.286Z,100284.50
2022-10-07T07:04:11.072Z,100284.50
2022-10-07T07:10:13.013Z,100279.97
2022-10-07T07:16:14.938Z,100284.69
2022-10-07T07:22:16.856Z,100281.66
2022-10-07T07:28:18.836Z,100281.81
2022-10-07T07:34:29.501Z,100285.06
2022-10-07T07:40:31.568Z,100284.09
2022-10-07T07:46:43.611Z,100264.59
2022-10-07T07:52:45.499Z,100269.25
2022-10-07T07:58:47.611Z,100265.19
2022-10-07T08:04:49.950Z,100255.25
2022-10-07T08:10:52.108Z,100259.69
2022-10-07T08:16:56.294Z,100239.34
2022-10-07T08:22:59.799Z,100242.53
2022-10-07T08:29:02.159Z,100235.03
2022-10-07T08:35:04.623Z,100226.78
2022-10-07T08:41:09.918Z,100222.06
2022-10-07T08:47:17.450Z,100223.88
2022-10-07T08:53:30.383Z,100209.38
2022-10-07T08:59:35.218Z,100207.63
2022-10-07T09:05:44.288Z,100200.59
2022-10-07T09:11:48.626Z,100191.59
2022-10-07T09:18:18.849Z,100191.69
2022-10-07T09:24:28.978Z,100182.44
2022-10-07T09:30:32.462Z,100177.59
2022-10-07T09:36:58.690Z,100179.00
2022-10-07T09:43:02.627Z,100165.50
2022-10-07T09:49:05.463Z,100176.44
2022-10-07T09:55:37.269Z,100162.53
2022-10-07T10:01:41.744Z,100178.25
2022-10-07T10:07:47.942Z,100161.84
2022-10-07T10:13:52.359Z,100142.22
2022-10-07T10:19:55.860Z,100128.34
2022-10-07T10:26:32.773Z,100112.91
2022-10-07T10:32:57.555Z,100103.22
2022-10-07T10:39:30.029Z,100086.25
2022-10-07T10:45:46.903Z,100076.69
2022-10-07T10:52:11.049Z,100079.66
2022-10-07T10:58:26.431Z,100070.53
2022-10-07T11:04:34.011Z,100065.34
2022-10-07T11:10:59.559Z,100038.53
2022-10-07T11:17:06.793Z,100029.56
2022-10-07T11:23:41.591Z,100022.09
2022-10-07T11:30:02.945Z,100007.50
2022-10-07T11:36:22.038Z,99991.56
2022-10-07T11:42:28.541Z,99974.25
2022-10-07T11:49:13.646Z,99953.81
2022-10-07T11:55:49.428Z,99939.75
2022-10-07T12:01:55.142Z,99934.75
2022-10-07T12:08:00.865Z,99918.69
2022-10-07T12:14:40.891Z,99911.75
2022-10-07T12:20:52.781Z,99909.50
2022-10-07T12:27:16.284Z,99896.56
2022-10-07T12:33:45.196Z,99888.44
2022-10-07T12:39:52.549Z,99881.03
2022-10-07T12:45:55.960Z,99865.03
2022-10-07T12:52:13.256Z,99854.47
2022-10-07T12:59:02.859Z,99841.91
2022-10-07T13:05:54.214Z,99836.03
2022-10-07T13:12:12.832Z,99816.50
2022-10-07T13:19:20.415Z,99819.41
2022-10-07T13:25:22.694Z,99809.63
2022-10-07T13:31:28.842Z,99790.72
2022-10-07T13:37:39.700Z,99790.66
2022-10-07T13:43:44.478Z,99774.22
2022-10-07T13:49:53.978Z,99758.34
2022-10-07T13:56:06.504Z,99750.22
2022-10-07T14:08:49.622Z,99739.47
2022-10-07T14:15:01.940Z,99733.28
2022-10-07T14:21:17.073Z,99721.66
2022-10-07T14:27:40.303Z,99704.72
2022-10-07T14:34:13.155Z,99700.25
2022-10-07T14:40:24.563Z,99695.16
2022-10-07T14:54:13.743Z,99683.22
2022-10-07T15:00:25.054Z,99670.97
2022-10-07T15:06:32.111Z,99678.94
2022-10-07T15:12:35.677Z,99668.09
2022-10-07T15:18:42.364Z,99662.19
2022-10-07T15:25:10.425Z,99653.53
2022-10-07T15:31:12.314Z,99640.00
2022-10-07T15:37:49.424Z,99642.81
2022-10-07T15:43:51.611Z,99637.16
2022-10-07T15:49:53.746Z,99625.88
2022-10-07T16:02:15.924Z,99610.28
2022-10-07T16:08:17.873Z,99599.75
2022-10-07T16:14:19.794Z,99611.78
2022-10-07T16:20:21.696Z,99591.13
2022-10-07T16:26:27.044Z,99583.44
2022-10-07T16:32:28.927Z,99588.81
2022-10-07T16:38:31.861Z,99592.88
2022-10-07T16:44:33.766Z,99575.31
2022-10-07T16:50:35.827Z,99574.81
2022-10-07T16:56:37.741Z,99570.09
2022-10-07T17:02:39.646Z,99568.84
2022-10-07T17:08:47.456Z,99565.78
2022-10-07T17:14:50.144Z,99566.69
2022-10-07T17:20:55.540Z,99557.97
2022-10-07T17:26:57.529Z,99556.91
2022-10-07T17:33:00.603Z,99545.16
2022-10-07T17:39:03.800Z,99552.63
2022-10-07T17:45:06.784Z,99553.03
2022-10-07T17:51:09.336Z,99545.19
2022-10-07T17:57:11.223Z,99548.09
2022-10-07T18:03:13.140Z,99541.03
2022-10-07T18:09:18.610Z,99541.84
2022-10-07T18:15:20.538Z,99545.41
2022-10-07T18:21:23.947Z,99540.22
2022-10-07T18:27:27.208Z,99530.72
2022-10-07T18:33:33.333Z,99526.34
2022-10-07T18:39:35.289Z,99528.59
2022-10-07T18:45:37.257Z,99524.69
2022-10-07T18:51:39.908Z,99523.03
2022-10-07T18:57:45.304Z,99532.34
2022-10-07T19:03:48.997Z,99523.22
2022-10-07T19:09:50.897Z,99530.47
2022-10-07T19:15:52.922Z,99519.28
2022-10-07T19:21:55.760Z,99521.16
2022-10-07T19:27:57.724Z,99514.97
2022-10-07T19:34:08.719Z,99512.47
2022-10-07T19:40:11.298Z,99518.91
2022-10-07T19:46:14.296Z,99513.50
2022-10-07T19:52:16.959Z,99512.84
2022-10-07T19:58:18.913Z,99504.19
2022-10-07T20:04:21.165Z,99504.50
2022-10-07T20:10:24.481Z,99510.09
2022-10-07T20:16:27.540Z,99504.66
2022-10-07T20:22:29.481Z,99498.22
2022-10-07T20:28:31.498Z,99487.69
2022-10-07T20:34:33.464Z,99488.28
2022-10-07T20:40:54.257Z,99486.66
2022-10-07T20:46:57.355Z,99484.78
2022-10-07T20:52:59.268Z,99481.50
2022-10-07T21:05:18.086Z,99471.63
2022-10-07T21:11:19.999Z,99469.69
2022-10-07T21:17:22.883Z,99478.97
2022-10-07T21:23:25.957Z,99474.78
2022-10-07T21:29:29.842Z,99469.28
2022-10-07T21:35:32.978Z,99451.56
2022-10-07T21:41:38.779Z,99456.28
2022-10-07T21:47:40.813Z,99446.13
2022-10-07T21:53:42.793Z,99435.13
2022-10-07T21:59:44.703Z,99435.69
2022-10-07T22:05:46.685Z,99421.31
2022-10-07T22:11:49.307Z,99418.47
2022-10-07T22:17:51.205Z,99408.47
2022-10-07T22:23:59.210Z,99406.59
2022-10-07T22:30:01.115Z,99405.31
2022-10-07T22:36:04.642Z,99393.78
2022-10-07T22:42:06.500Z,99391.47
2022-10-07T22:48:08.820Z,99372.00
2022-10-07T22:54:12.941Z,99377.69
2022-10-07T23:00:15.872Z,99373.06
2022-10-07T23:06:19.771Z,99362.59
2022-10-07T23:12:21.721Z,99361.78
2022-10-07T23:18:23.725Z,99365.03
2022-10-07T23:24:28.210Z,99354.56
2022-10-07T23:30:31.131Z,99337.91
2022-10-07T23:36:35.264Z,99332.44
2022-10-07T23:42:37.106Z,99336.88
2022-10-07T23:48:40.238Z,99333.59
2022-10-07T23:54:42.613Z,99327.81
